KPAM

Tyndall AFB Airport

Panama City, Florida, USA
METAR KPAM 161955Z AUTO 20007KT 10SM CLR 30/25 A3005 RMK AO2 SLP177 WND DATA ESTMD T02950248
Observed Flight Rules
Oct-16 @ 19:55 UTC (7 hours ago) Visual Flight Rules
Wind Visibility Clouds
200° at 7 knots 10 miles
  • Clear skies
Temperatures Readings
Current 30°C / 86°F
Dewpoint 25°C / 77°F
Humidity 75%
Altimeter 30.05" Hg
Pressure 1017.7 hPa
Elevation 5
METAR KPAM 161955Z AUTO 20007KT 10SM CLR 30/25 A3005 RMK AO2 SLP177 WND DATA ESTMD T02950248
Observed Flight Rules
Oct-16 @ 19:55 UTC
(7 hours ago)
VFR
Wind Visibility
200° at 7 knots 10 miles
Clouds
  • Clear skies
Temperature Dewpoint
30°C / 86°F 25°C / 77°F
Humidity Altimeter Pressure
75% 30.05" Hg 1017.7 hPa